Caribe Alliance — WDC9383 — position and weather

sailwx.info

Track history (hours):
 
Tides and Currents Weather Stations Pressure Air Temp Water Temp Dewpoint Dewpoint Depression Visibility Wind Speed Wind Dir Waves Ship Positions

Caribe Alliance

Owner: Gulf Caribe Maritime, Redondo Beach, CA. More information available from US FCC via Universal Licensing System and Coast Guard Vessel Documentation Center.

Last reported at 2015-Apr-01 15:03 UTC. Time now 2015-Apr-02 00:08 UTC.
Position N 33°51' W 118°24'.

Length 19 m; draft 3.3 m.

Type: Port tender. MMSI: 367101530.

Date/timePositionNaut miles runAvg speedWind from/ knotsBaromVisibWave heightAir tempDewpointWater temp
2015-Apr-01 15:03N 33°51' W 118°24'0 0.0
2015-Apr-01 01:20N 33°51' W 118°24'0 0.0
2015-Mar-31 16:24N 33°51' W 118°24'0 0.0
2015-Mar-30 06:29N 33°51' W 118°24'0 0.0
2015-Mar-30 00:33N 33°51' W 118°24'0 0.0
2015-Mar-29 23:31N 33°51' W 118°24'0 0.0
2015-Mar-29 22:28N 33°51' W 118°24'0 0.0
2015-Mar-29 21:22N 33°51' W 118°24'0 0.0
2015-Mar-29 20:32N 33°51' W 118°24'0 0.0
2015-Mar-29 18:21N 33°51' W 118°24'5 6.6
2015-Mar-29 17:34N 33°55' W 118°27'0 0.1
2015-Mar-29 16:31N 33°55' W 118°27'0 0.3
2015-Mar-29 15:32N 33°55' W 118°28'3 1.5
2015-Mar-29 13:30N 33°52' W 118°26'3 0.9
2015-Mar-29 10:32N 33°51' W 118°24'5 2.4
2015-Mar-29 08:33N 33°54' W 118°27'0 0.1
2015-Mar-29 07:10N 33°54' W 118°27'0 0.1
2015-Mar-29 04:09N 33°54' W 118°27'0 0.0
2015-Mar-29 03:33N 33°54' W 118°27'0 0.0
2015-Mar-29 01:33N 33°54' W 118°27'0 0.0
2015-Mar-29 00:33N 33°54' W 118°27'0 0.0
2015-Mar-28 23:33N 33°54' W 118°27'0 0.0
2015-Mar-28 22:33N 33°54' W 118°27'0 0.0
2015-Mar-28 20:07N 33°54' W 118°27'0 0.0
2015-Mar-28 19:33N 33°54' W 118°27'0 0.0
2015-Mar-28 18:33N 33°54' W 118°27'0 0.2
2015-Mar-28 17:33N 33°54' W 118°27'0 0.2
2015-Mar-28 16:33N 33°54' W 118°27'0 0.1
2015-Mar-28 15:33N 33°54' W 118°27'0 0.0
2015-Mar-28 14:33N 33°54' W 118°27'3 3.2
2015-Mar-28 13:30N 33°51' W 118°25'2 0.3
2015-Mar-28 08:33N 33°51' W 118°24'0 0.0
2015-Mar-28 07:15N 33°51' W 118°24'0 0.0
2015-Mar-28 03:33N 33°51' W 118°24'0 0.0
2015-Mar-28 02:27N 33°51' W 118°24'0 0.0
2015-Mar-28 01:33N 33°51' W 118°24'0 0.2
2015-Mar-28 00:16N 33°50' W 118°24'5 5.6
2015-Mar-27 23:25N 33°54' W 118°27'0 0.2
2015-Mar-27 22:33N 33°54' W 118°27'0 0.1
2015-Mar-27 21:33N 33°54' W 118°27'0 0.1
2015-Mar-27 20:33N 33°54' W 118°27'0 0.3
2015-Mar-27 19:33N 33°54' W 118°27'0 0.0
2015-Mar-27 18:31N 33°54' W 118°27'0 0.0
2015-Mar-27 17:33N 33°54' W 118°27'0 0.0
2015-Mar-27 16:33N 33°54' W 118°27'0 0.0
2015-Mar-27 15:33N 33°54' W 118°27'0 0.0
2015-Mar-27 13:31N 33°54' W 118°27'0 0.0
2015-Mar-27 07:09N 33°54' W 118°27'0 0.0
2015-Mar-27 06:33N 33°54' W 118°27'0 0.0
2015-Mar-27 04:33N 33°54' W 118°27'0 0.0
2015-Mar-27 03:33N 33°54' W 118°27'0 0.0
2015-Mar-27 02:33N 33°54' W 118°27'0 0.0
2015-Mar-27 01:33N 33°54' W 118°27'0 0.0
2015-Mar-27 00:33N 33°54' W 118°27'0 0.0
2015-Mar-26 23:33N 33°54' W 118°27'0 0.0
2015-Mar-26 22:33N 33°54' W 118°27'0 0.0
2015-Mar-26 21:33N 33°54' W 118°27'0 0.0
2015-Mar-26 20:33N 33°54' W 118°27'0 0.0
2015-Mar-26 19:33N 33°54' W 118°27'0 0.0
2015-Mar-26 18:33N 33°54' W 118°27'5 0.4
2015-Mar-26 08:09N 33°51' W 118°24'4 5.7
2015-Mar-26 07:22N 33°54' W 118°27'0 0.1
2015-Mar-26 04:33N 33°54' W 118°27'0 0.0
2015-Mar-26 02:12N 33°54' W 118°27'0 0.0
2015-Mar-26 01:30N 33°54' W 118°27'0 0.0
2015-Mar-26 00:33N 33°54' W 118°27'0 0.0
2015-Mar-25 23:24N 33°54' W 118°27'0 0.0
2015-Mar-25 22:30N 33°54' W 118°27'0 0.0
2015-Mar-25 21:15N 33°54' W 118°27'0 0.0
2015-Mar-25 20:12N 33°54' W 118°27'0 0.0
2015-Mar-25 18:27N 33°54' W 118°27'0 0.3
2015-Mar-25 17:10N 33°54' W 118°27'4 2.2
2015-Mar-25 15:25N 33°51' W 118°25'1 0.3
2015-Mar-25 11:17N 33°51' W 118°24'0 0.0
2015-Mar-24 19:15N 33°51' W 118°24'0 0.0
2015-Mar-24 18:33N 33°51' W 118°24'0 0.0
2015-Mar-24 17:33N 33°51' W 118°24'0 0.0
2015-Mar-24 16:32N 33°51' W 118°24'0 0.0
2015-Mar-24 08:19N 33°51' W 118°24'  
Track history (hours):
 
Tides and Currents Weather Stations Pressure Air Temp Water Temp Dewpoint Dewpoint Depression Visibility Wind Speed Wind Dir Waves Ship Positions

Caribe Alliance

Owner: Gulf Caribe Maritime, Redondo Beach, CA. More information available from US FCC via Universal Licensing System and Coast Guard Vessel Documentation Center.

Last reported at 2015-Apr-01 15:03 UTC. Time now 2015-Apr-02 00:08 UTC.
Position N 33°51' W 118°24'.

Length 19 m; draft 3.3 m.

Type: Port tender. MMSI: 367101530.

Date/timePositionNaut miles runAvg speedWind from/ knotsBaromVisibWave heightAir tempDewpointWater temp
2015-Apr-01 15:03N 33°51' W 118°24'0 0.0
2015-Apr-01 01:20N 33°51' W 118°24'0 0.0
2015-Mar-31 16:24N 33°51' W 118°24'0 0.0
2015-Mar-30 06:29N 33°51' W 118°24'0 0.0
2015-Mar-30 00:33N 33°51' W 118°24'0 0.0
2015-Mar-29 23:31N 33°51' W 118°24'0 0.0
2015-Mar-29 22:28N 33°51' W 118°24'0 0.0
2015-Mar-29 21:22N 33°51' W 118°24'0 0.0
2015-Mar-29 20:32N 33°51' W 118°24'0 0.0
2015-Mar-29 18:21N 33°51' W 118°24'5 6.6
2015-Mar-29 17:34N 33°55' W 118°27'0 0.1
2015-Mar-29 16:31N 33°55' W 118°27'0 0.3
2015-Mar-29 15:32N 33°55' W 118°28'3 1.5
2015-Mar-29 13:30N 33°52' W 118°26'3 0.9
2015-Mar-29 10:32N 33°51' W 118°24'5 2.4
2015-Mar-29 08:33N 33°54' W 118°27'0 0.1
2015-Mar-29 07:10N 33°54' W 118°27'0 0.1
2015-Mar-29 04:09N 33°54' W 118°27'0 0.0
2015-Mar-29 03:33N 33°54' W 118°27'0 0.0
2015-Mar-29 01:33N 33°54' W 118°27'0 0.0
2015-Mar-29 00:33N 33°54' W 118°27'0 0.0
2015-Mar-28 23:33N 33°54' W 118°27'0 0.0
2015-Mar-28 22:33N 33°54' W 118°27'0 0.0
2015-Mar-28 20:07N 33°54' W 118°27'0 0.0
2015-Mar-28 19:33N 33°54' W 118°27'0 0.0
2015-Mar-28 18:33N 33°54' W 118°27'0 0.2
2015-Mar-28 17:33N 33°54' W 118°27'0 0.2
2015-Mar-28 16:33N 33°54' W 118°27'0 0.1
2015-Mar-28 15:33N 33°54' W 118°27'0 0.0
2015-Mar-28 14:33N 33°54' W 118°27'3 3.2
2015-Mar-28 13:30N 33°51' W 118°25'2 0.3
2015-Mar-28 08:33N 33°51' W 118°24'0 0.0
2015-Mar-28 07:15N 33°51' W 118°24'0 0.0
2015-Mar-28 03:33N 33°51' W 118°24'0 0.0
2015-Mar-28 02:27N 33°51' W 118°24'0 0.0
2015-Mar-28 01:33N 33°51' W 118°24'0 0.2
2015-Mar-28 00:16N 33°50' W 118°24'5 5.6
2015-Mar-27 23:25N 33°54' W 118°27'0 0.2
2015-Mar-27 22:33N 33°54' W 118°27'0 0.1
2015-Mar-27 21:33N 33°54' W 118°27'0 0.1
2015-Mar-27 20:33N 33°54' W 118°27'0 0.3
2015-Mar-27 19:33N 33°54' W 118°27'0 0.0
2015-Mar-27 18:31N 33°54' W 118°27'0 0.0
2015-Mar-27 17:33N 33°54' W 118°27'0 0.0
2015-Mar-27 16:33N 33°54' W 118°27'0 0.0
2015-Mar-27 15:33N 33°54' W 118°27'0 0.0
2015-Mar-27 13:31N 33°54' W 118°27'0 0.0
2015-Mar-27 07:09N 33°54' W 118°27'0 0.0
2015-Mar-27 06:33N 33°54' W 118°27'0 0.0
2015-Mar-27 04:33N 33°54' W 118°27'0 0.0
2015-Mar-27 03:33N 33°54' W 118°27'0 0.0
2015-Mar-27 02:33N 33°54' W 118°27'0 0.0
2015-Mar-27 01:33N 33°54' W 118°27'0 0.0
2015-Mar-27 00:33N 33°54' W 118°27'0 0.0
2015-Mar-26 23:33N 33°54' W 118°27'0 0.0
2015-Mar-26 22:33N 33°54' W 118°27'0 0.0
2015-Mar-26 21:33N 33°54' W 118°27'0 0.0
2015-Mar-26 20:33N 33°54' W 118°27'0 0.0
2015-Mar-26 19:33N 33°54' W 118°27'0 0.0
2015-Mar-26 18:33N 33°54' W 118°27'5 0.4
2015-Mar-26 08:09N 33°51' W 118°24'4 5.7
2015-Mar-26 07:22N 33°54' W 118°27'0 0.1
2015-Mar-26 04:33N 33°54' W 118°27'0 0.0
2015-Mar-26 02:12N 33°54' W 118°27'0 0.0
2015-Mar-26 01:30N 33°54' W 118°27'0 0.0
2015-Mar-26 00:33N 33°54' W 118°27'0 0.0
2015-Mar-25 23:24N 33°54' W 118°27'0 0.0
2015-Mar-25 22:30N 33°54' W 118°27'0 0.0
2015-Mar-25 21:15N 33°54' W 118°27'0 0.0
2015-Mar-25 20:12N 33°54' W 118°27'0 0.0
2015-Mar-25 18:27N 33°54' W 118°27'0 0.3
2015-Mar-25 17:10N 33°54' W 118°27'4 2.2
2015-Mar-25 15:25N 33°51' W 118°25'1 0.3
2015-Mar-25 11:17N 33°51' W 118°24'0 0.0
2015-Mar-24 19:15N 33°51' W 118°24'0 0.0
2015-Mar-24 18:33N 33°51' W 118°24'0 0.0
2015-Mar-24 17:33N 33°51' W 118°24'0 0.0
2015-Mar-24 16:32N 33°51' W 118°24'0 0.0
2015-Mar-24 08:19N 33°51' W 118°24'  

Dump ship's entire track history